createdAt,value
2022-11-09T00:00:08.248Z,29.27
2022-11-09T00:01:09.899Z,28.50
2022-11-09T00:02:11.556Z,29.17
2022-11-09T00:03:13.685Z,31.95
2022-11-09T00:04:15.403Z,30.45
2022-11-09T00:05:17.171Z,32.38
2022-11-09T00:06:18.828Z,31.48
2022-11-09T00:07:20.582Z,31.90
2022-11-09T00:08:22.521Z,31.15
2022-11-09T00:09:24.226Z,30.92
2022-11-09T00:10:25.925Z,29.17
2022-11-09T00:11:27.778Z,31.27
2022-11-09T00:12:29.441Z,30.55
2022-11-09T00:13:31.236Z,30.95
2022-11-09T00:14:33.245Z,30.88
2022-11-09T00:15:34.914Z,30.83
2022-11-09T00:16:36.619Z,30.83
2022-11-09T00:17:38.285Z,32.10
2022-11-09T00:18:41.438Z,33.47
2022-11-09T00:19:43.181Z,33.75
2022-11-09T00:20:48.047Z,34.40
2022-11-09T00:21:50.083Z,34.63
2022-11-09T00:22:51.747Z,33.17
2022-11-09T00:23:53.551Z,34.63
2022-11-09T00:24:55.198Z,33.10
2022-11-09T00:26:01.119Z,34.30
2022-11-09T00:27:02.784Z,35.80
2022-11-09T00:28:04.629Z,37.13
2022-11-09T00:29:06.476Z,37.17
2022-11-09T00:30:10.586Z,39.90
2022-11-09T00:31:20.537Z,38.60
2022-11-09T00:32:27.519Z,38.03
2022-11-09T00:33:29.553Z,37.50
2022-11-09T00:34:31.201Z,36.67
2022-11-09T00:35:33.568Z,36.63
2022-11-09T00:36:35.215Z,38.03
2022-11-09T00:37:36.934Z,37.05
2022-11-09T00:38:42.735Z,36.25
2022-11-09T00:39:44.448Z,38.47
2022-11-09T00:40:46.122Z,38.72
2022-11-09T00:41:47.779Z,37.95
2022-11-09T00:42:49.434Z,37.47
2022-11-09T00:43:51.904Z,38.05
2022-11-09T00:44:53.770Z,36.40
2022-11-09T00:45:55.465Z,36.03
2022-11-09T00:46:57.131Z,36.58
2022-11-09T00:47:58.814Z,36.50
2022-11-09T00:49:00.513Z,36.97
2022-11-09T00:50:02.160Z,37.30
2022-11-09T00:51:06.657Z,37.72
2022-11-09T00:52:08.747Z,36.90
2022-11-09T00:53:10.400Z,36.22
2022-11-09T00:54:12.658Z,37.00
2022-11-09T00:55:14.746Z,38.42
2022-11-09T00:56:16.480Z,39.05
2022-11-09T00:57:18.142Z,37.80
2022-11-09T00:58:19.871Z,38.15
2022-11-09T00:59:21.509Z,38.20
2022-11-09T01:00:26.344Z,38.17
2022-11-09T01:01:28.074Z,37.03
2022-11-09T01:02:29.836Z,39.03
2022-11-09T01:03:31.568Z,40.60
2022-11-09T01:04:33.325Z,40.42
2022-11-09T01:05:39.632Z,39.42
2022-11-09T01:06:41.447Z,39.97
2022-11-09T01:07:43.166Z,39.60
2022-11-09T01:08:45.870Z,39.97
2022-11-09T01:09:47.527Z,38.10
2022-11-09T01:10:49.475Z,39.58
2022-11-09T01:11:51.189Z,39.13
2022-11-09T01:12:52.808Z,36.42
2022-11-09T01:13:55.233Z,39.28
2022-11-09T01:14:56.945Z,40.05
2022-11-09T01:15:58.600Z,39.40
2022-11-09T01:17:00.262Z,39.35
2022-11-09T01:18:01.987Z,38.80
2022-11-09T01:19:04.053Z,39.00
2022-11-09T01:20:06.208Z,39.08
2022-11-09T01:21:11.012Z,38.92
2022-11-09T01:22:12.758Z,38.35
2022-11-09T01:23:16.742Z,38.13
2022-11-09T01:24:18.712Z,40.30
2022-11-09T01:25:20.346Z,41.20
2022-11-09T01:26:22.553Z,39.50
2022-11-09T01:27:24.266Z,40.38
2022-11-09T01:28:26.052Z,39.55
2022-11-09T01:29:27.758Z,39.30
2022-11-09T01:30:30.214Z,39.03
2022-11-09T01:31:32.022Z,39.70
2022-11-09T01:32:33.697Z,41.55
2022-11-09T01:33:36.052Z,38.97
2022-11-09T01:34:37.679Z,39.55
2022-11-09T01:35:40.653Z,39.15
2022-11-09T01:36:42.323Z,41.08
2022-11-09T01:37:44.021Z,42.13
2022-11-09T01:38:46.065Z,41.65
2022-11-09T01:39:47.709Z,43.20
2022-11-09T01:40:49.365Z,40.20
2022-11-09T01:41:51.053Z,42.35
2022-11-09T01:42:52.758Z,39.80
2022-11-09T01:44:03.468Z,41.75
2022-11-09T01:45:17.355Z,38.03
2022-11-09T01:46:22.933Z,38.92
2022-11-09T01:47:25.883Z,39.15
2022-11-09T01:48:41.618Z,38.47
2022-11-09T01:49:50.824Z,38.95
2022-11-09T01:50:58.635Z,39.10
2022-11-09T01:52:26.568Z,35.90
2022-11-09T01:53:32.804Z,39.63
2022-11-09T01:54:48.287Z,37.92
2022-11-09T01:55:53.205Z,40.70
2022-11-09T01:56:59.576Z,37.83
2022-11-09T01:58:07.705Z,39.63
2022-11-09T01:59:15.050Z,38.33
2022-11-09T02:00:17.794Z,39.90
2022-11-09T02:01:19.579Z,42.67
2022-11-09T02:02:21.973Z,40.63
2022-11-09T02:03:29.731Z,41.60
2022-11-09T02:04:43.749Z,38.13
2022-11-09T02:05:46.475Z,38.63
2022-11-09T02:06:49.456Z,38.70
2022-11-09T02:07:52.300Z,39.25
2022-11-09T02:08:58.572Z,39.45
2022-11-09T02:10:12.696Z,39.10
2022-11-09T02:11:17.960Z,39.13
2022-11-09T02:12:20.386Z,40.38
2022-11-09T02:13:25.182Z,40.53
2022-11-09T02:14:29.564Z,40.00
2022-11-09T02:15:31.229Z,40.35
2022-11-09T02:16:33.776Z,35.83
2022-11-09T02:17:36.338Z,36.97
2022-11-09T02:18:52.148Z,38.00
2022-11-09T02:19:53.830Z,39.55
2022-11-09T02:20:58.164Z,38.70
2022-11-09T02:21:59.974Z,37.90
2022-11-09T02:23:01.786Z,37.70
2022-11-09T02:24:03.511Z,37.13
2022-11-09T02:25:05.889Z,38.80
2022-11-09T02:26:12.347Z,41.28
2022-11-09T02:27:14.048Z,34.03
2022-11-09T02:28:17.608Z,35.53
2022-11-09T02:29:35.632Z,38.17
2022-11-09T02:30:37.503Z,39.03
2022-11-09T02:31:44.927Z,36.30
2022-11-09T02:32:46.668Z,37.05
2022-11-09T02:33:51.316Z,38.00
2022-11-09T02:34:53.045Z,33.92
2022-11-09T02:35:54.754Z,35.38
2022-11-09T02:36:56.444Z,37.45
2022-11-09T02:37:58.442Z,35.72
2022-11-09T02:39:00.178Z,37.53
2022-11-09T02:40:07.702Z,36.65
2022-11-09T02:41:11.989Z,38.28
2022-11-09T02:42:21.198Z,37.80
2022-11-09T02:43:23.628Z,37.78
2022-11-09T02:44:26.406Z,36.83
2022-11-09T02:45:28.116Z,37.40
2022-11-09T02:46:35.607Z,37.20
2022-11-09T02:47:37.261Z,38.53
2022-11-09T02:48:38.920Z,38.10
2022-11-09T02:49:40.603Z,37.55
2022-11-09T02:50:42.387Z,37.38
2022-11-09T02:51:44.171Z,37.83
2022-11-09T02:52:45.830Z,38.30
2022-11-09T02:53:47.487Z,38.83
2022-11-09T02:54:49.170Z,40.40
2022-11-09T02:55:51.046Z,41.15
2022-11-09T02:56:52.740Z,40.53
2022-11-09T02:57:54.394Z,41.22
2022-11-09T02:58:56.181Z,41.95
2022-11-09T02:59:57.861Z,42.78
2022-11-09T03:00:59.541Z,42.58
2022-11-09T03:02:01.727Z,44.75
2022-11-09T03:03:04.253Z,44.03
2022-11-09T03:04:05.961Z,41.95
2022-11-09T03:05:08.112Z,42.17
2022-11-09T03:06:09.781Z,43.17
2022-11-09T03:07:11.520Z,41.08
2022-11-09T03:08:13.208Z,41.10
2022-11-09T03:09:14.902Z,43.03
2022-11-09T03:10:16.859Z,42.55
2022-11-09T03:11:18.547Z,43.42
2022-11-09T03:12:29.418Z,43.13
2022-11-09T03:13:31.103Z,41.90
2022-11-09T03:14:33.470Z,40.28
2022-11-09T03:15:35.594Z,42.88
2022-11-09T03:16:38.669Z,40.97
2022-11-09T03:17:40.699Z,43.63
2022-11-09T03:18:42.391Z,44.35
2022-11-09T03:19:44.767Z,42.28
2022-11-09T03:20:46.395Z,42.97
2022-11-09T03:21:48.132Z,42.42
2022-11-09T03:22:49.950Z,41.47
2022-11-09T03:23:51.724Z,42.80
2022-11-09T03:24:53.369Z,41.67
2022-11-09T03:25:55.020Z,40.63
2022-11-09T03:26:56.674Z,42.45
2022-11-09T03:28:02.881Z,40.60
2022-11-09T03:29:04.608Z,40.65
2022-11-09T03:30:06.970Z,40.47
2022-11-09T03:31:09.049Z,38.15
2022-11-09T03:32:10.931Z,40.53
2022-11-09T03:33:14.432Z,40.95
2022-11-09T03:34:16.059Z,40.00
2022-11-09T03:35:17.866Z,37.95
2022-11-09T03:36:19.519Z,40.97
2022-11-09T03:37:21.227Z,36.80
2022-11-09T03:38:23.406Z,38.33
2022-11-09T03:39:25.238Z,38.88
2022-11-09T03:40:26.927Z,38.15
2022-11-09T03:41:28.567Z,36.45
2022-11-09T03:42:30.239Z,35.13
2022-11-09T03:43:31.960Z,34.38
2022-11-09T03:44:33.601Z,34.75
2022-11-09T03:45:35.265Z,35.45
2022-11-09T03:46:37.021Z,33.13
2022-11-09T03:47:42.996Z,33.45
2022-11-09T03:48:44.694Z,32.13
2022-11-09T03:49:46.391Z,30.48
2022-11-09T03:50:48.117Z,32.83
2022-11-09T03:51:50.910Z,31.25
2022-11-09T03:52:52.768Z,31.80
2022-11-09T03:53:54.456Z,29.05
2022-11-09T03:54:56.122Z,28.48
2022-11-09T03:55:58.377Z,29.83
2022-11-09T03:57:00.046Z,29.30
2022-11-09T03:58:02.229Z,27.42
2022-11-09T03:59:03.941Z,29.00
2022-11-09T04:00:07.752Z,30.45
2022-11-09T04:01:10.966Z,29.17
2022-11-09T04:02:12.797Z,29.05
2022-11-09T04:03:14.483Z,28.90
2022-11-09T04:04:16.176Z,26.48
2022-11-09T04:05:17.973Z,29.17
2022-11-09T04:06:19.615Z,32.03
2022-11-09T04:07:21.247Z,29.42
2022-11-09T04:08:23.092Z,30.55
2022-11-09T04:09:24.759Z,28.30
2022-11-09T04:10:27.245Z,31.60
2022-11-09T04:11:28.926Z,33.10
2022-11-09T04:12:30.630Z,33.60
2022-11-09T04:13:32.308Z,31.55
2022-11-09T04:14:33.948Z,30.63
2022-11-09T04:15:36.459Z,30.88
2022-11-09T04:16:38.601Z,30.17
2022-11-09T04:17:40.948Z,29.30
2022-11-09T04:18:42.584Z,30.83
2022-11-09T04:19:44.239Z,29.95
2022-11-09T04:20:45.904Z,29.30
2022-11-09T04:21:47.566Z,29.95
2022-11-09T04:23:00.256Z,28.70
2022-11-09T04:24:01.956Z,30.30
2022-11-09T04:25:05.169Z,27.17
2022-11-09T04:26:06.960Z,27.38
2022-11-09T04:27:08.623Z,29.00
2022-11-09T04:28:12.808Z,29.92
2022-11-09T04:29:14.563Z,30.08
2022-11-09T04:30:16.461Z,27.52
2022-11-09T04:31:18.147Z,29.30
2022-11-09T04:32:19.797Z,29.15
2022-11-09T04:33:21.880Z,29.98
2022-11-09T04:34:23.882Z,26.63
2022-11-09T04:35:27.789Z,28.17
2022-11-09T04:36:29.419Z,28.45
2022-11-09T04:37:31.100Z,28.52
2022-11-09T04:38:33.066Z,27.30
2022-11-09T04:39:34.762Z,26.80
2022-11-09T04:40:36.825Z,26.10
2022-11-09T04:41:38.573Z,28.35
2022-11-09T04:42:40.207Z,27.27
2022-11-09T04:43:42.340Z,28.70
2022-11-09T04:44:43.990Z,28.65
2022-11-09T04:45:47.466Z,32.15
2022-11-09T04:46:49.128Z,31.30
2022-11-09T04:47:50.784Z,32.60
2022-11-09T04:48:52.552Z,33.08
2022-11-09T04:49:54.217Z,34.25
2022-11-09T04:51:01.454Z,33.28
2022-11-09T04:52:03.228Z,34.08
2022-11-09T04:53:09.806Z,36.25
2022-11-09T04:54:11.724Z,38.83
2022-11-09T04:55:13.345Z,38.55
2022-11-09T04:56:15.014Z,38.55
2022-11-09T04:57:16.665Z,37.72
2022-11-09T04:58:23.785Z,39.15
2022-11-09T04:59:26.543Z,41.53
2022-11-09T05:00:28.317Z,40.15
2022-11-09T05:01:30.062Z,39.35
2022-11-09T05:02:32.323Z,39.30
2022-11-09T05:03:34.793Z,37.00
2022-11-09T05:04:36.482Z,37.33
2022-11-09T05:05:44.076Z,37.80
2022-11-09T05:06:48.804Z,37.78
2022-11-09T05:07:50.479Z,36.58
2022-11-09T05:08:53.451Z,35.22
2022-11-09T05:09:55.163Z,34.63
2022-11-09T05:10:58.189Z,33.63
2022-11-09T05:11:59.847Z,33.72
2022-11-09T05:13:07.228Z,32.35
2022-11-09T05:14:08.888Z,31.48
2022-11-09T05:15:11.173Z,33.22
2022-11-09T05:16:13.259Z,33.10
2022-11-09T05:17:14.977Z,31.60
2022-11-09T05:18:16.647Z,30.23
2022-11-09T05:19:18.351Z,33.53
2022-11-09T05:20:20.145Z,32.72
2022-11-09T05:21:22.191Z,31.50
2022-11-09T05:22:42.577Z,31.75
2022-11-09T05:23:59.772Z,31.52
2022-11-09T05:25:01.537Z,30.38
2022-11-09T05:26:03.440Z,31.00
2022-11-09T05:27:05.191Z,30.92
2022-11-09T05:28:06.881Z,31.63
2022-11-09T05:29:10.669Z,31.25
2022-11-09T05:30:12.636Z,31.35
2022-11-09T05:31:14.420Z,31.33
2022-11-09T05:32:16.046Z,28.75
2022-11-09T05:33:18.175Z,27.35
2022-11-09T05:34:20.165Z,25.13
2022-11-09T05:35:21.826Z,22.92
2022-11-09T05:36:24.537Z,23.42
2022-11-09T05:37:26.232Z,23.23
2022-11-09T05:38:27.931Z,29.17
2022-11-09T05:39:29.587Z,28.25
2022-11-09T05:40:32.298Z,28.60
2022-11-09T05:41:33.947Z,27.52
2022-11-09T05:42:38.994Z,28.55
2022-11-09T05:43:41.375Z,28.13
2022-11-09T05:44:43.137Z,28.85
2022-11-09T05:45:45.134Z,28.73
2022-11-09T05:46:46.776Z,27.85
2022-11-09T05:47:48.564Z,28.40
2022-11-09T05:48:50.293Z,29.15
2022-11-09T05:49:51.975Z,27.95
2022-11-09T05:50:53.673Z,28.42
2022-11-09T05:51:55.305Z,25.13
2022-11-09T05:52:59.493Z,26.65
2022-11-09T05:54:01.126Z,26.05
2022-11-09T05:55:03.028Z,26.00
2022-11-09T05:56:05.947Z,26.65
2022-11-09T05:57:07.640Z,25.92
2022-11-09T05:58:09.526Z,25.33
2022-11-09T05:59:11.330Z,27.17
2022-11-09T06:00:14.011Z,25.48
2022-11-09T06:01:18.851Z,27.73
2022-11-09T06:02:20.859Z,26.02
2022-11-09T06:03:22.919Z,27.48
2022-11-09T06:04:24.932Z,27.65
2022-11-09T06:05:26.610Z,28.00
2022-11-09T06:06:30.067Z,29.25
2022-11-09T06:07:32.878Z,27.90
2022-11-09T06:08:35.016Z,28.95
2022-11-09T06:09:36.684Z,29.20
2022-11-09T06:10:38.726Z,34.08
2022-11-09T06:11:40.455Z,34.53
2022-11-09T06:12:42.081Z,35.45
2022-11-09T06:13:43.756Z,37.00
2022-11-09T06:14:45.452Z,38.60
2022-11-09T06:15:53.988Z,38.22
2022-11-09T06:16:55.733Z,37.75
2022-11-09T06:17:59.403Z,38.15
2022-11-09T06:19:01.251Z,37.65
2022-11-09T06:20:04.289Z,38.08
2022-11-09T06:21:06.410Z,37.22
2022-11-09T06:22:08.366Z,35.25
2022-11-09T06:23:10.082Z,37.47
2022-11-09T06:24:11.891Z,37.28
2022-11-09T06:25:13.612Z,35.97
2022-11-09T06:26:15.515Z,36.88
2022-11-09T06:27:17.157Z,36.25
2022-11-09T06:28:18.899Z,34.55
2022-11-09T06:29:20.556Z,34.88
2022-11-09T06:30:22.933Z,35.97
2022-11-09T06:31:24.605Z,36.05
2022-11-09T06:32:26.342Z,35.22
2022-11-09T06:33:30.771Z,34.30
2022-11-09T06:34:32.485Z,34.10
2022-11-09T06:35:34.164Z,35.13
2022-11-09T06:36:35.820Z,34.47
2022-11-09T06:37:37.647Z,34.33
2022-11-09T06:38:39.957Z,33.92
2022-11-09T06:39:41.623Z,33.72
2022-11-09T06:40:44.480Z,35.33
2022-11-09T06:41:47.628Z,34.70
2022-11-09T06:42:49.582Z,32.20
2022-11-09T06:43:51.277Z,34.28
2022-11-09T06:44:52.940Z,32.80
2022-11-09T06:45:55.273Z,32.78
2022-11-09T06:46:56.968Z,33.00
2022-11-09T06:48:00.356Z,33.40
2022-11-09T06:49:02.087Z,33.22
2022-11-09T06:50:04.009Z,33.08
2022-11-09T06:51:06.791Z,32.55
2022-11-09T06:52:08.493Z,33.30
2022-11-09T06:53:12.893Z,33.75
2022-11-09T06:54:14.551Z,34.42
2022-11-09T06:55:16.309Z,34.75
2022-11-09T06:56:18.047Z,34.97
2022-11-09T06:57:19.694Z,35.90
2022-11-09T06:58:22.169Z,34.90
2022-11-09T06:59:23.986Z,37.13
2022-11-09T07:00:27.712Z,36.17
2022-11-09T07:01:29.914Z,39.15
2022-11-09T07:02:31.832Z,39.20
2022-11-09T07:03:33.486Z,40.55
2022-11-09T07:04:35.127Z,40.00
2022-11-09T07:05:40.206Z,42.55
2022-11-09T07:06:42.197Z,42.85
2022-11-09T07:07:44.331Z,41.92
2022-11-09T07:08:45.965Z,44.33
2022-11-09T07:09:47.624Z,44.72
2022-11-09T07:10:49.380Z,43.55
2022-11-09T07:11:51.065Z,46.30
2022-11-09T07:12:52.739Z,46.65
2022-11-09T07:13:57.368Z,46.97
2022-11-09T07:14:59.472Z,45.33
2022-11-09T07:16:01.443Z,44.47
2022-11-09T07:17:03.190Z,45.67
2022-11-09T07:18:07.437Z,43.42
2022-11-09T07:19:09.098Z,43.83
2022-11-09T07:20:11.768Z,42.80
2022-11-09T07:21:14.541Z,41.53
2022-11-09T07:22:16.441Z,41.53
2022-11-09T07:23:18.693Z,44.13
2022-11-09T07:24:20.704Z,44.03
2022-11-09T07:25:22.898Z,44.63
2022-11-09T07:26:24.596Z,43.65
2022-11-09T07:27:28.120Z,44.42
2022-11-09T07:28:30.500Z,43.60
2022-11-09T07:29:32.189Z,46.80
2022-11-09T07:30:34.173Z,46.38
2022-11-09T07:31:35.819Z,45.08
2022-11-09T07:33:08.652Z,45.13
2022-11-09T07:34:04.850Z,45.80
2022-11-09T07:35:08.166Z,45.90
2022-11-09T07:36:09.885Z,45.65
2022-11-09T07:37:11.556Z,44.13
2022-11-09T07:38:15.855Z,45.25
2022-11-09T07:39:17.518Z,42.13
2022-11-09T07:40:19.912Z,42.72
2022-11-09T07:41:21.557Z,40.38
2022-11-09T07:42:24.182Z,41.45
2022-11-09T07:43:26.051Z,41.58
2022-11-09T07:44:27.727Z,41.47
2022-11-09T07:45:30.453Z,40.05
2022-11-09T07:46:32.494Z,40.35
2022-11-09T07:47:34.151Z,41.17
2022-11-09T07:48:35.805Z,39.58
2022-11-09T07:49:37.483Z,38.75
2022-11-09T07:50:40.506Z,39.40
2022-11-09T07:51:42.919Z,41.28
2022-11-09T07:52:44.587Z,40.85
2022-11-09T07:53:46.281Z,42.67
2022-11-09T07:54:51.979Z,40.13
2022-11-09T07:56:01.781Z,40.30
2022-11-09T07:57:03.561Z,41.35
2022-11-09T07:58:11.722Z,40.85
2022-11-09T07:59:13.382Z,40.80
2022-11-09T08:00:19.842Z,42.25
2022-11-09T08:01:24.241Z,45.05
2022-11-09T08:02:26.015Z,42.50
2022-11-09T08:03:27.982Z,43.15
2022-11-09T08:04:29.714Z,41.42
2022-11-09T08:05:31.887Z,40.90
2022-11-09T08:06:33.806Z,41.28
2022-11-09T08:07:35.547Z,40.58
2022-11-09T08:08:37.236Z,39.55
2022-11-09T08:09:38.906Z,41.88
2022-11-09T08:10:40.648Z,39.65
2022-11-09T08:11:42.283Z,40.90
2022-11-09T08:12:43.916Z,39.42
2022-11-09T08:13:45.693Z,39.30
2022-11-09T08:14:47.370Z,39.03
2022-11-09T08:15:49.567Z,41.88
2022-11-09T08:16:51.257Z,39.42
2022-11-09T08:17:53.315Z,40.35
2022-11-09T08:18:54.990Z,40.92
2022-11-09T08:19:56.659Z,40.25
2022-11-09T08:21:02.287Z,39.97
2022-11-09T08:22:03.943Z,39.83
2022-11-09T08:23:06.915Z,39.67
2022-11-09T08:24:08.817Z,39.83
2022-11-09T08:25:11.291Z,39.72
2022-11-09T08:26:13.054Z,37.75
2022-11-09T08:27:14.708Z,37.22
2022-11-09T08:28:16.590Z,37.92
2022-11-09T08:29:18.460Z,37.30
2022-11-09T08:30:21.543Z,37.38
2022-11-09T08:31:23.310Z,47.80
2022-11-09T08:32:24.955Z,38.20
2022-11-09T08:33:28.565Z,35.75
2022-11-09T08:34:30.210Z,37.22
2022-11-09T08:35:32.088Z,37.33
2022-11-09T08:36:36.277Z,36.80
2022-11-09T08:37:38.908Z,36.10
2022-11-09T08:38:41.715Z,36.63
2022-11-09T08:39:43.403Z,36.80
2022-11-09T08:40:45.076Z,36.08
2022-11-09T08:41:46.750Z,35.78
2022-11-09T08:42:48.497Z,36.25
2022-11-09T08:43:50.179Z,34.85
2022-11-09T08:44:51.834Z,34.95
2022-11-09T08:45:53.936Z,34.92
2022-11-09T08:46:55.566Z,34.88
2022-11-09T08:47:59.082Z,33.10
2022-11-09T08:49:00.818Z,34.22
2022-11-09T08:50:04.638Z,34.97
2022-11-09T08:51:06.432Z,35.85
2022-11-09T08:52:08.156Z,34.08
2022-11-09T08:53:09.800Z,34.40
2022-11-09T08:54:13.636Z,34.17
2022-11-09T08:55:15.325Z,33.53
2022-11-09T08:56:19.164Z,33.78
2022-11-09T08:57:20.813Z,34.17
2022-11-09T08:58:22.873Z,31.52
2022-11-09T08:59:24.819Z,31.60
2022-11-09T09:00:27.267Z,31.65
2022-11-09T09:01:29.067Z,31.80
2022-11-09T09:02:30.848Z,30.10
2022-11-09T09:03:32.516Z,30.98
2022-11-09T09:04:34.192Z,32.08
2022-11-09T09:05:36.698Z,30.77
2022-11-09T09:06:38.569Z,32.53
2022-11-09T09:07:40.344Z,31.40
2022-11-09T09:08:41.994Z,34.22
2022-11-09T09:09:44.763Z,36.60
2022-11-09T09:10:46.406Z,36.72
2022-11-09T09:11:48.056Z,35.90
2022-11-09T09:12:49.712Z,36.95
2022-11-09T09:13:51.367Z,35.25
2022-11-09T09:14:53.041Z,37.55
2022-11-09T09:15:54.682Z,37.28
2022-11-09T09:16:56.808Z,37.38
2022-11-09T09:18:02.377Z,56.22
2022-11-09T09:19:04.898Z,37.63
2022-11-09T09:20:07.135Z,43.47
2022-11-09T09:21:10.440Z,37.10
2022-11-09T09:22:12.481Z,34.97
2022-11-09T09:23:15.395Z,38.17
2022-11-09T09:24:17.389Z,36.38
2022-11-09T09:25:19.034Z,36.63
2022-11-09T09:26:20.848Z,34.78
2022-11-09T09:27:22.537Z,33.33
2022-11-09T09:28:24.224Z,35.90
2022-11-09T09:29:25.936Z,35.58
2022-11-09T09:30:27.662Z,35.83
2022-11-09T09:31:29.323Z,34.85
2022-11-09T09:32:30.988Z,34.90
2022-11-09T09:33:32.770Z,34.80
2022-11-09T09:34:34.443Z,34.95
2022-11-09T09:35:36.176Z,34.88
2022-11-09T09:36:42.041Z,35.05
2022-11-09T09:37:46.553Z,35.30
2022-11-09T09:38:52.721Z,32.97
2022-11-09T09:39:54.356Z,34.88
2022-11-09T09:41:05.983Z,33.78
2022-11-09T09:42:14.376Z,32.90
2022-11-09T09:43:26.016Z,34.15
2022-11-09T09:44:35.373Z,34.25
2022-11-09T09:45:49.162Z,32.53
2022-11-09T09:46:59.214Z,32.85
2022-11-09T09:48:04.739Z,33.92
2022-11-09T09:49:14.807Z,34.20
2022-11-09T09:50:23.071Z,32.85
2022-11-09T09:51:29.489Z,35.95
2022-11-09T09:53:22.318Z,33.38
2022-11-09T09:54:30.673Z,33.05
2022-11-09T09:55:39.047Z,31.80
2022-11-09T09:56:44.246Z,32.13
2022-11-09T09:57:54.359Z,32.08
2022-11-09T09:59:28.080Z,31.70
2022-11-09T10:00:33.399Z,32.95
2022-11-09T10:01:41.409Z,31.63
2022-11-09T10:02:43.398Z,33.30
2022-11-09T10:03:45.050Z,32.03
2022-11-09T10:04:47.190Z,30.75
2022-11-09T10:05:58.602Z,30.10
2022-11-09T10:07:00.446Z,35.20
2022-11-09T10:08:16.192Z,30.60
2022-11-09T10:09:23.851Z,37.33
2022-11-09T10:11:03.897Z,31.65
2022-11-09T10:12:23.118Z,30.92
2022-11-09T10:13:50.627Z,29.70
2022-11-09T10:15:13.916Z,30.30
2022-11-09T10:16:29.624Z,29.73
2022-11-09T10:17:49.838Z,29.13
2022-11-09T10:18:54.245Z,29.70
2022-11-09T10:20:24.078Z,29.90
2022-11-09T10:21:37.716Z,29.73
2022-11-09T10:23:14.710Z,27.35
2022-11-09T10:24:36.776Z,25.05
2022-11-09T10:27:02.918Z,23.33
2022-11-09T10:28:13.259Z,22.60
2022-11-09T10:29:24.454Z,23.48
2022-11-09T10:31:32.861Z,24.25
2022-11-09T10:32:35.092Z,26.10
2022-11-09T10:33:37.177Z,26.15
2022-11-09T10:35:03.173Z,27.02
2022-11-09T10:36:25.073Z,27.35
2022-11-09T10:37:37.087Z,25.67
2022-11-09T10:38:47.226Z,23.02
2022-11-09T10:40:05.537Z,24.13
2022-11-09T10:41:39.817Z,23.63
2022-11-09T10:42:56.074Z,23.02
2022-11-09T10:43:57.842Z,25.50
2022-11-09T10:45:02.248Z,25.80
2022-11-09T10:46:06.602Z,24.45
2022-11-09T10:47:16.821Z,24.75
2022-11-09T10:48:31.169Z,23.67
2022-11-09T10:49:34.298Z,23.02
2022-11-09T10:50:47.925Z,22.00
2022-11-09T10:51:49.713Z,22.45
2022-11-09T10:52:51.612Z,22.00
2022-11-09T10:54:23.507Z,22.58
2022-11-09T10:55:29.006Z,22.58
2022-11-09T10:57:05.148Z,21.83
2022-11-09T10:58:18.164Z,21.42
2022-11-09T10:59:44.713Z,22.45
2022-11-09T11:01:15.682Z,21.65
2022-11-09T11:02:29.042Z,21.65
2022-11-09T11:03:35.448Z,20.75
2022-11-09T11:04:37.145Z,19.30
2022-11-09T11:05:39.904Z,20.10
2022-11-09T11:06:41.627Z,20.30
2022-11-09T11:07:43.683Z,20.35
2022-11-09T11:09:07.538Z,20.67
2022-11-09T11:10:10.302Z,19.40
2022-11-09T11:11:33.104Z,19.77
2022-11-09T11:12:36.338Z,20.45
2022-11-09T11:13:38.008Z,19.42
2022-11-09T11:14:44.640Z,18.92
2022-11-09T11:15:46.808Z,17.90
2022-11-09T11:16:50.857Z,18.55
2022-11-09T11:18:02.151Z,18.30
2022-11-09T11:19:04.711Z,17.38
2022-11-09T11:20:31.018Z,18.30
2022-11-09T11:21:32.678Z,19.83
2022-11-09T11:22:34.387Z,19.33
2022-11-09T11:23:37.121Z,19.23
2022-11-09T11:24:51.836Z,20.08
2022-11-09T11:25:53.430Z,19.10
2022-11-09T11:27:10.210Z,19.95
2022-11-09T11:28:24.445Z,20.13
2022-11-09T11:29:52.325Z,19.50
2022-11-09T11:30:54.022Z,20.17
2022-11-09T11:31:55.751Z,20.00
2022-11-09T11:32:58.073Z,20.15
2022-11-09T11:34:01.006Z,20.45
2022-11-09T11:35:18.173Z,19.48
2022-11-09T11:36:26.074Z,20.40
2022-11-09T11:37:37.947Z,19.80
2022-11-09T11:38:45.667Z,20.50
2022-11-09T11:40:04.345Z,19.98
2022-11-09T11:41:28.065Z,20.20
2022-11-09T11:43:03.736Z,19.27
2022-11-09T11:44:20.657Z,19.20
2022-11-09T11:45:41.832Z,21.25
2022-11-09T11:46:54.417Z,21.40
2022-11-09T11:48:14.019Z,19.92
2022-11-09T11:49:30.695Z,20.38
2022-11-09T11:50:44.503Z,19.00
2022-11-09T11:52:27.720Z,20.15
2022-11-09T11:53:51.427Z,19.08
2022-11-09T11:55:23.416Z,18.70
2022-11-09T11:56:36.962Z,19.02
2022-11-09T11:58:16.703Z,18.65
2022-11-09T11:59:55.976Z,17.63
2022-11-09T12:01:00.250Z,18.00
2022-11-09T12:02:23.921Z,19.42
2022-11-09T12:03:59.344Z,19.70
2022-11-09T12:05:09.737Z,19.35
2022-11-09T12:06:35.145Z,18.65
2022-11-09T12:07:58.720Z,19.95
2022-11-09T12:09:06.345Z,20.45
2022-11-09T12:10:28.070Z,20.85
2022-11-09T12:11:57.375Z,18.67
2022-11-09T12:13:11.095Z,19.30
2022-11-09T12:14:18.748Z,19.02
2022-11-09T12:15:23.443Z,19.20
2022-11-09T12:16:34.258Z,19.35
2022-11-09T12:17:44.904Z,18.75
2022-11-09T12:19:25.452Z,18.83
2022-11-09T12:20:41.340Z,19.50
2022-11-09T12:21:59.538Z,18.27
2022-11-09T12:23:30.174Z,20.48
2022-11-09T12:24:55.257Z,18.80
2022-11-09T12:26:33.657Z,20.83
2022-11-09T12:27:53.435Z,19.27
2022-11-09T12:29:07.199Z,19.50
2022-11-09T12:30:16.669Z,21.48
2022-11-09T12:31:36.692Z,20.95
2022-11-09T12:32:53.487Z,19.80
2022-11-09T12:34:03.186Z,20.33
2022-11-09T12:35:21.022Z,20.92
2022-11-09T12:36:29.165Z,21.23
2022-11-09T12:37:39.332Z,21.95
2022-11-09T12:39:20.477Z,22.25
2022-11-09T12:41:02.418Z,21.35
2022-11-09T12:43:11.122Z,20.08
2022-11-09T12:44:22.028Z,20.77
2022-11-09T12:45:32.801Z,22.63
2022-11-09T12:46:40.341Z,20.83
2022-11-09T12:47:44.372Z,19.95
2022-11-09T12:48:48.432Z,20.02
2022-11-09T12:49:51.282Z,19.88
2022-11-09T12:50:53.919Z,19.23
2022-11-09T12:51:58.933Z,20.95
2022-11-09T12:53:03.760Z,20.63
2022-11-09T12:54:11.488Z,19.50
2022-11-09T12:55:19.914Z,18.83
2022-11-09T12:56:40.480Z,19.23
2022-11-09T12:57:46.224Z,19.60
2022-11-09T12:58:47.968Z,20.35
2022-11-09T12:59:58.153Z,19.85
2022-11-09T13:01:12.464Z,17.55
2022-11-09T13:02:23.715Z,19.75
2022-11-09T13:03:27.610Z,19.92
2022-11-09T13:04:29.841Z,20.63
2022-11-09T13:05:37.814Z,19.63
2022-11-09T13:06:39.702Z,20.23
2022-11-09T13:07:49.908Z,20.33
2022-11-09T13:09:01.562Z,22.20
2022-11-09T13:10:04.309Z,20.65
2022-11-09T13:11:48.785Z,21.10
2022-11-09T13:12:50.483Z,20.70
2022-11-09T13:13:52.128Z,20.63
2022-11-09T13:14:54.008Z,20.23
2022-11-09T13:16:33.346Z,20.15
2022-11-09T13:17:37.752Z,20.45
2022-11-09T13:18:45.483Z,20.30
2022-11-09T13:19:48.552Z,18.80
2022-11-09T13:20:56.980Z,19.50
2022-11-09T13:21:59.360Z,19.83
2022-11-09T13:23:41.584Z,21.05
2022-11-09T13:25:02.186Z,19.40
2022-11-09T13:26:05.268Z,19.23
2022-11-09T13:27:29.668Z,20.08
2022-11-09T13:28:31.274Z,20.38
2022-11-09T13:29:42.067Z,20.60
2022-11-09T13:30:43.925Z,19.60
2022-11-09T13:32:04.205Z,19.73
2022-11-09T13:33:05.776Z,19.10
2022-11-09T13:34:39.639Z,20.10
2022-11-09T13:35:41.220Z,19.70
2022-11-09T13:36:42.908Z,20.60
2022-11-09T13:37:48.180Z,18.63
2022-11-09T13:39:28.131Z,20.85
2022-11-09T13:40:32.800Z,20.02
2022-11-09T13:41:34.443Z,19.80
2022-11-09T13:42:36.952Z,20.10
2022-11-09T13:43:40.811Z,20.27
2022-11-09T13:44:44.626Z,19.42
2022-11-09T13:46:05.079Z,19.38
2022-11-09T13:47:22.142Z,20.23
2022-11-09T13:48:29.948Z,20.13
2022-11-09T13:49:45.424Z,20.40
2022-11-09T13:50:56.533Z,20.48
2022-11-09T13:51:58.464Z,20.13
2022-11-09T13:53:01.510Z,20.00
2022-11-09T13:54:05.635Z,19.42
2022-11-09T13:55:27.222Z,19.33
2022-11-09T13:56:37.676Z,19.25
2022-11-09T13:57:40.582Z,19.98
2022-11-09T13:58:43.298Z,20.58
2022-11-09T13:59:49.439Z,20.65
2022-11-09T14:00:51.074Z,20.77
2022-11-09T14:01:55.336Z,20.85
2022-11-09T14:03:06.785Z,20.80
2022-11-09T14:04:22.121Z,20.15
2022-11-09T14:05:38.698Z,21.35
2022-11-09T14:06:40.479Z,21.63
2022-11-09T14:07:42.207Z,22.00
2022-11-09T14:08:44.133Z,22.08